Time;durP1;ratioP1;P1;durP2;ratioP2;P2;SDS_P1;SDS_P2;PMS_P1;PMS_P2;Temp;Humidity;BMP_temperature;BMP_pressure;BME280_temperature;BME280_humidity;BME280_pressure;Samples;Min_cycle;Max_cycle;Signal;HPM_P1;HPM_P2
2021/03/09 00:00:12;;;;;;;7.32;3.88;;;-0.20;99.90;;;;;;5051030;28;20481;-75
2021/03/09 00:02:37;;;;;;;11.82;4.30;;;-0.10;99.90;;;;;;5051308;28;20491;-75
2021/03/09 00:05:04;;;;;;;9.95;4.10;;;-0.10;99.90;;;;;;5050614;28;20048;-75
2021/03/09 00:07:29;;;;;;;8.55;4.05;;;-0.10;99.90;;;;;;5051360;28;20367;-75
2021/03/09 00:09:55;;;;;;;8.18;3.47;;;0.00;99.90;;;;;;5051186;28;20028;-75
2021/03/09 00:12:21;;;;;;;9.18;4.45;;;0.00;99.90;;;;;;5050658;28;20044;-75
2021/03/09 00:14:46;;;;;;;7.88;4.18;;;0.00;99.90;;;;;;5050325;28;20029;-75
2021/03/09 00:17:12;;;;;;;14.57;4.28;;;0.00;99.90;;;;;;5033309;28;20436;-75
2021/03/09 00:19:38;;;;;;;12.18;4.28;;;0.00;99.90;;;;;;5051032;28;20036;-75
2021/03/09 00:22:03;;;;;;;8.25;3.40;;;0.10;99.90;;;;;;5050857;28;20052;-76
2021/03/09 00:24:29;;;;;;;10.45;4.05;;;0.10;99.90;;;;;;5032347;28;20458;-75
2021/03/09 00:26:55;;;;;;;8.38;3.90;;;0.10;99.90;;;;;;5050711;28;20075;-75
2021/03/09 00:29:20;;;;;;;8.95;4.32;;;0.20;99.90;;;;;;5054753;28;20057;-76
2021/03/09 00:31:46;;;;;;;12.38;4.25;;;0.20;99.90;;;;;;5054474;28;20033;-76
2021/03/09 00:34:11;;;;;;;12.32;4.47;;;0.20;99.90;;;;;;5053773;28;20101;-75
2021/03/09 00:36:37;;;;;;;6.90;3.88;;;0.10;99.90;;;;;;5054928;28;20025;-75
2021/03/09 00:39:03;;;;;;;8.05;3.78;;;0.20;99.90;;;;;;5054695;28;20032;-75
2021/03/09 00:41:28;;;;;;;8.30;3.45;;;0.20;99.90;;;;;;5054328;28;20389;-75
2021/03/09 00:43:54;;;;;;;8.65;3.50;;;0.20;99.90;;;;;;5053949;28;20017;-76
2021/03/09 00:46:20;;;;;;;7.82;3.22;;;0.30;99.90;;;;;;5054652;28;20025;-75
2021/03/09 00:48:45;;;;;;;11.02;4.05;;;0.30;99.90;;;;;;5054462;28;20040;-75
2021/03/09 00:51:11;;;;;;;7.07;3.42;;;0.30;99.90;;;;;;5036364;28;20040;-75
2021/03/09 00:53:36;;;;;;;12.80;3.92;;;0.40;99.90;;;;;;5054315;28;20082;-76
2021/03/09 00:56:02;;;;;;;8.75;4.00;;;0.40;99.90;;;;;;5035745;28;20389;-75
2021/03/09 00:58:28;;;;;;;8.43;3.88;;;0.40;99.90;;;;;;5054112;28;20068;-75
2021/03/09 01:00:53;;;;;;;10.45;3.42;;;0.40;99.90;;;;;;5036281;28;20094;-76
2021/03/09 01:03:19;;;;;;;10.93;3.58;;;0.40;99.90;;;;;;5035878;28;20029;-75
2021/03/09 01:05:45;;;;;;;9.35;3.78;;;0.50;99.90;;;;;;5035859;28;20017;-75
2021/03/09 01:08:10;;;;;;;6.28;3.67;;;0.50;99.90;;;;;;5036436;28;20029;-76
2021/03/09 01:10:36;;;;;;;5.88;3.13;;;0.50;99.90;;;;;;5035839;28;20082;-76
2021/03/09 01:13:02;;;;;;;11.35;3.78;;;0.50;99.90;;;;;;5036051;28;20509;-75
2021/03/09 01:15:28;;;;;;;9.38;3.47;;;0.50;99.90;;;;;;5035541;28;20124;-75
2021/03/09 01:17:54;;;;;;;5.53;3.33;;;0.50;99.90;;;;;;5054064;28;20112;-75
2021/03/09 01:20:19;;;;;;;10.05;4.20;;;0.50;99.90;;;;;;5036102;28;20111;-75
2021/03/09 01:22:45;;;;;;;10.75;4.18;;;0.50;99.90;;;;;;5053682;28;20029;-75
2021/03/09 01:25:11;;;;;;;6.90;3.25;;;0.50;99.90;;;;;;5035499;28;20036;-76
2021/03/09 01:27:37;;;;;;;8.70;3.50;;;0.50;99.90;;;;;;5035325;28;20052;-75
2021/03/09 01:30:08;;;;;;;5.95;3.38;;;0.50;99.90;;;;;;5053780;28;20021;-75
2021/03/09 01:32:34;;;;;;;8.98;3.88;;;0.50;99.90;;;;;;5035495;28;20036;-75
2021/03/09 01:35:00;;;;;;;10.30;4.63;;;0.50;99.90;;;;;;5052902;28;20104;-75
2021/03/09 01:37:26;;;;;;;7.85;3.53;;;0.50;99.90;;;;;;5035900;28;20116;-75
2021/03/09 01:39:51;;;;;;;10.88;3.53;;;0.60;99.90;;;;;;5052404;28;20488;-75
2021/03/09 01:42:17;;;;;;;5.57;3.15;;;0.60;99.90;;;;;;5053143;28;20524;-75
2021/03/09 01:44:42;;;;;;;6.80;3.17;;;0.60;99.90;;;;;;5035009;28;20070;-75
2021/03/09 01:47:09;;;;;;;6.75;3.38;;;0.60;99.90;;;;;;5053608;28;20037;-76
2021/03/09 01:49:38;;;;;;;8.73;3.03;;;0.60;99.90;;;;;;5053362;28;20025;-75
2021/03/09 01:52:07;;;;;;;8.95;3.80;;;0.60;99.90;;;;;;5035312;28;20051;-75
2021/03/09 01:54:33;;;;;;;10.77;4.65;;;0.60;99.90;;;;;;5052602;28;20394;-75
2021/03/09 01:57:00;;;;;;;11.45;3.45;;;0.60;99.90;;;;;;5052986;28;20044;-75
2021/03/09 01:59:26;;;;;;;7.97;3.45;;;0.60;99.90;;;;;;5052408;28;20055;-75
2021/03/09 02:01:52;;;;;;;8.93;3.83;;;0.60;99.90;;;;;;5052917;28;20083;-75
2021/03/09 02:04:18;;;;;;;7.20;3.70;;;0.70;99.90;;;;;;5034654;28;20124;-75
2021/03/09 02:06:43;;;;;;;10.68;4.28;;;0.60;99.90;;;;;;5052953;28;20096;-75
2021/03/09 02:09:10;;;;;;;12.35;3.30;;;0.70;99.90;;;;;;5053025;28;20099;-75
2021/03/09 02:11:53;;;;;;;12.25;4.60;;;0.70;99.90;;;;;;5034881;28;20037;-75
2021/03/09 02:14:28;;;;;;;8.88;3.72;;;0.70;99.90;;;;;;5034239;28;20037;-75
2021/03/09 02:17:08;;;;;;;10.15;3.50;;;0.70;99.90;;;;;;5053031;28;20108;-75
2021/03/09 02:20:12;;;;;;;7.72;3.50;;;0.70;99.90;;;;;;5052822;28;20448;-75
2021/03/09 02:23:05;;;;;;;;;;;0.70;99.90;;;;;;5035224;28;20037;-75
2021/03/09 02:26:07;;;;;;;13.05;3.97;;;0.70;99.90;;;;;;5034065;28;20389;-75
2021/03/09 02:29:13;;;;;;;10.93;3.65;;;0.60;99.90;;;;;;5052850;28;20032;-75
2021/03/09 02:31:42;;;;;;;9.10;3.90;;;0.60;99.90;;;;;;5052395;28;20017;-75
2021/03/09 02:34:12;;;;;;;9.25;3.40;;;0.60;99.90;;;;;;5051192;28;20328;-75
2021/03/09 02:36:40;;;;;;;7.93;3.50;;;0.60;99.90;;;;;;5032511;28;20091;-75
2021/03/09 02:39:08;;;;;;;10.43;4.10;;;0.60;99.90;;;;;;5014734;28;20017;-75
2021/03/09 02:41:44;;;;;;;7.45;2.88;;;0.60;99.90;;;;;;5024293;28;20056;-75
2021/03/09 02:44:13;;;;;;;8.23;3.70;;;0.60;99.90;;;;;;5051642;28;20029;-75
2021/03/09 02:46:40;;;;;;;7.55;3.05;;;0.60;99.90;;;;;;5052419;28;20026;-76
2021/03/09 02:49:07;;;;;;;5.30;3.10;;;0.50;99.90;;;;;;5052159;28;20167;-75
2021/03/09 02:51:36;;;;;;;6.63;3.70;;;0.60;99.90;;;;;;5051367;28;20029;-75
2021/03/09 02:54:03;;;;;;;7.95;3.80;;;0.60;99.90;;;;;;5033743;28;20036;-75
2021/03/09 02:56:29;;;;;;;10.48;3.30;;;0.50;99.90;;;;;;5052012;28;20037;-75
2021/03/09 02:58:57;;;;;;;6.60;3.10;;;0.60;99.90;;;;;;5051879;28;20036;-75
2021/03/09 03:01:29;;;;;;;6.45;2.97;;;0.60;99.90;;;;;;5033668;28;20083;-75
2021/03/09 03:03:56;;;;;;;6.78;3.33;;;0.60;99.90;;;;;;5032503;28;20439;-75
2021/03/09 03:06:22;;;;;;;9.32;3.05;;;0.60;99.90;;;;;;5051294;28;20024;-75
2021/03/09 03:08:48;;;;;;;9.60;3.28;;;0.50;99.90;;;;;;5034099;28;20199;-76
2021/03/09 03:11:15;;;;;;;10.43;3.75;;;0.60;99.90;;;;;;5051615;28;20100;-76
2021/03/09 03:13:42;;;;;;;10.43;3.55;;;0.50;99.90;;;;;;5050983;28;20036;-76
2021/03/09 03:16:10;;;;;;;8.27;3.63;;;0.60;99.90;;;;;;5051943;28;20389;-75
2021/03/09 03:18:39;;;;;;;12.57;4.38;;;0.60;99.90;;;;;;5051785;28;20029;-75
2021/03/09 03:21:07;;;;;;;20.50;4.90;;;0.60;99.90;;;;;;5051271;28;20038;-75
2021/03/09 03:23:33;;;;;;;14.48;4.57;;;0.60;99.90;;;;;;5051760;28;20025;-76
2021/03/09 03:26:04;;;;;;;6.30;3.78;;;0.60;99.90;;;;;;5050863;28;20017;-76
2021/03/09 03:28:31;;;;;;;7.75;3.10;;;0.60;99.90;;;;;;5051372;28;20021;-76
2021/03/09 03:30:57;;;;;;;7.55;3.63;;;0.60;99.90;;;;;;5051733;28;20107;-76
2021/03/09 03:33:22;;;;;;;19.33;3.53;;;0.60;99.90;;;;;;5051045;28;20066;-75
2021/03/09 03:35:48;;;;;;;8.95;4.03;;;0.60;99.90;;;;;;5050725;28;20079;-76
2021/03/09 03:38:15;;;;;;;9.63;4.00;;;0.60;99.90;;;;;;5051522;28;20025;-75
2021/03/09 03:40:42;;;;;;;9.93;3.80;;;0.60;99.90;;;;;;5051064;28;20017;-76
2021/03/09 03:43:09;;;;;;;9.05;4.03;;;0.60;99.90;;;;;;5051205;28;20025;-75
2021/03/09 03:45:35;;;;;;;11.27;4.00;;;0.50;99.90;;;;;;5050809;28;20196;-75
2021/03/09 03:48:01;;;;;;;5.40;3.40;;;0.60;99.90;;;;;;5033621;28;20501;-75
2021/03/09 03:50:28;;;;;;;8.38;3.42;;;0.60;99.90;;;;;;5051034;28;20037;-75
2021/03/09 03:53:15;;;;;;;8.75;3.80;;;0.60;99.90;;;;;;5033288;28;20040;-75
2021/03/09 03:55:41;;;;;;;12.35;4.03;;;0.60;99.90;;;;;;5050329;28;20040;-76
2021/03/09 03:58:17;;;;;;;9.25;3.33;;;0.60;99.90;;;;;;5051140;28;20037;-75
2021/03/09 04:00:44;;;;;;;7.70;3.60;;;0.60;99.90;;;;;;5051208;28;20033;-75
2021/03/09 04:03:13;;;;;;;7.57;3.85;;;0.60;99.90;;;;;;5053148;28;20078;-75
2021/03/09 04:05:42;;;;;;;8.25;3.60;;;0.60;99.90;;;;;;5054818;28;20095;-75
2021/03/09 04:08:08;;;;;;;10.32;4.15;;;0.60;99.90;;;;;;5037523;28;20119;-75
2021/03/09 04:10:34;;;;;;;9.00;4.35;;;0.60;99.90;;;;;;5054971;28;20215;-76
2021/03/09 04:13:01;;;;;;;8.02;3.13;;;0.60;99.90;;;;;;5055500;28;20029;-75
2021/03/09 04:15:28;;;;;;;9.85;3.70;;;0.60;99.90;;;;;;5036612;28;20563;-76
2021/03/09 04:17:56;;;;;;;7.28;3.85;;;0.60;99.90;;;;;;5055305;28;20154;-76
2021/03/09 04:20:23;;;;;;;8.00;3.85;;;0.50;99.90;;;;;;5036922;28;20392;-75
2021/03/09 04:22:48;;;;;;;7.30;3.55;;;0.60;99.90;;;;;;5055007;28;20032;-76
2021/03/09 04:25:14;;;;;;;11.65;3.13;;;0.50;99.90;;;;;;5054097;28;20033;-75
2021/03/09 04:27:40;;;;;;;7.55;3.55;;;0.50;99.90;;;;;;5054721;28;20025;-75
2021/03/09 04:30:06;;;;;;;7.10;3.03;;;0.50;99.90;;;;;;5054941;28;20032;-75
2021/03/09 04:32:32;;;;;;;8.50;3.90;;;0.50;99.90;;;;;;5054538;28;20032;-75
2021/03/09 04:34:58;;;;;;;14.15;3.85;;;0.50;99.90;;;;;;5053950;28;20029;-76
2021/03/09 04:37:24;;;;;;;8.65;3.40;;;0.50;99.90;;;;;;5036749;28;20025;-76
2021/03/09 04:39:50;;;;;;;6.53;2.75;;;0.50;99.90;;;;;;5036700;28;20036;-75
2021/03/09 04:42:16;;;;;;;7.38;4.40;;;0.50;99.90;;;;;;5054549;28;20128;-75
2021/03/09 04:44:41;;;;;;;8.77;3.60;;;0.50;99.90;;;;;;5054157;28;20036;-76
2021/03/09 04:47:07;;;;;;;13.35;3.90;;;0.50;99.90;;;;;;5054748;28;20021;-75
2021/03/09 04:49:35;;;;;;;6.93;2.95;;;0.50;99.90;;;;;;5054639;28;20112;-76
2021/03/09 04:52:01;;;;;;;8.48;3.13;;;0.50;99.90;;;;;;5054007;28;20033;-75
2021/03/09 04:54:27;;;;;;;7.95;3.05;;;0.50;99.90;;;;;;5053897;28;20024;-75
2021/03/09 04:56:53;;;;;;;9.15;4.22;;;0.50;99.90;;;;;;5054301;28;20029;-75
2021/03/09 04:59:19;;;;;;;7.93;3.97;;;0.50;99.90;;;;;;5054450;28;20082;-76
2021/03/09 05:01:46;;;;;;;7.90;3.35;;;0.50;99.90;;;;;;5036869;28;20448;-76
2021/03/09 05:04:12;;;;;;;11.85;3.70;;;0.50;99.90;;;;;;5053352;28;20074;-76
2021/03/09 05:06:37;;;;;;;11.32;3.95;;;0.50;99.90;;;;;;5054464;28;20108;-76
2021/03/09 05:09:04;;;;;;;7.03;3.05;;;0.50;99.90;;;;;;5054246;28;20155;-75
2021/03/09 05:11:29;;;;;;;8.68;3.28;;;0.60;99.90;;;;;;5053951;28;20040;-75
2021/03/09 05:13:56;;;;;;;8.35;3.42;;;0.50;99.90;;;;;;5053284;28;20017;-76
2021/03/09 05:16:22;;;;;;;6.93;2.97;;;0.50;99.90;;;;;;5054221;28;20037;-75
2021/03/09 05:18:48;;;;;;;13.45;3.83;;;0.50;99.90;;;;;;5053961;28;20028;-75
2021/03/09 05:21:13;;;;;;;8.60;3.65;;;0.50;99.90;;;;;;5053781;28;20806;-75
2021/03/09 05:23:39;;;;;;;12.82;4.95;;;0.50;99.90;;;;;;5035735;28;20082;-76
2021/03/09 05:26:05;;;;;;;10.80;2.85;;;0.50;99.90;;;;;;5035737;28;20560;-75
2021/03/09 05:28:31;;;;;;;10.38;3.55;;;0.50;99.90;;;;;;5053963;28;20104;-75
2021/03/09 05:30:56;;;;;;;6.70;3.25;;;0.50;99.90;;;;;;5053953;28;20029;-75
2021/03/09 05:33:22;;;;;;;5.82;3.30;;;0.40;99.90;;;;;;5053268;28;20029;-75
2021/03/09 05:35:47;;;;;;;10.15;4.28;;;0.40;99.90;;;;;;5053154;28;20029;-75
2021/03/09 05:38:13;;;;;;;5.47;3.00;;;0.40;99.90;;;;;;5053615;28;20033;-75
2021/03/09 05:40:38;;;;;;;9.57;3.38;;;0.40;99.90;;;;;;5053319;28;20027;-75
2021/03/09 05:43:04;;;;;;;5.60;3.15;;;0.40;99.90;;;;;;5053676;28;20029;-76
2021/03/09 05:45:30;;;;;;;6.20;3.60;;;0.30;99.90;;;;;;5052968;28;20032;-75
2021/03/09 05:47:58;;;;;;;6.55;3.60;;;0.30;99.90;;;;;;5053588;28;20024;-75
2021/03/09 05:50:23;;;;;;;9.73;3.60;;;0.30;99.90;;;;;;5053387;28;20029;-75
2021/03/09 05:52:49;;;;;;;6.63;3.00;;;0.30;99.90;;;;;;5053229;28;20560;-76
2021/03/09 05:55:15;;;;;;;8.25;3.42;;;0.20;99.90;;;;;;5034894;28;20033;-75
2021/03/09 05:57:41;;;;;;;9.40;3.58;;;0.30;99.90;;;;;;5053086;28;20562;-75
2021/03/09 06:00:09;;;;;;;6.10;3.10;;;0.20;99.90;;;;;;5035314;28;20025;-75
2021/03/09 06:02:35;;;;;;;11.13;3.63;;;0.20;99.90;;;;;;5052816;28;20025;-75
2021/03/09 06:05:06;;;;;;;8.73;2.95;;;0.20;99.90;;;;;;5052595;28;20021;-75
2021/03/09 06:07:31;;;;;;;13.13;3.60;;;0.20;99.90;;;;;;5053185;28;20032;-75
2021/03/09 06:09:57;;;;;;;10.95;3.92;;;0.20;99.90;;;;;;5053226;28;20389;-75
2021/03/09 06:12:25;;;;;;;8.55;3.45;;;0.20;99.90;;;;;;5052785;28;20094;-75
2021/03/09 06:15:00;;;;;;;6.15;3.10;;;0.20;99.90;;;;;;5052405;28;20100;-75
2021/03/09 06:17:29;;;;;;;9.75;3.08;;;0.20;99.90;;;;;;5035203;28;20029;-76
2021/03/09 06:19:56;;;;;;;9.05;3.80;;;0.20;99.90;;;;;;5052860;28;20029;-75
2021/03/09 06:22:40;;;;;;;7.57;3.28;;;0.20;99.90;;;;;;5034752;28;20086;-75
2021/03/09 06:25:07;;;;;;;13.27;3.40;;;0.20;99.90;;;;;;5051771;28;20028;-75
2021/03/09 06:27:34;;;;;;;8.07;3.10;;;0.20;99.90;;;;;;5034539;28;20033;-75
2021/03/09 06:30:00;;;;;;;9.10;3.00;;;0.30;99.90;;;;;;5052802;28;20082;-75
2021/03/09 06:32:30;;;;;;;7.75;3.17;;;0.30;99.90;;;;;;5052479;28;20110;-76
2021/03/09 06:34:55;;;;;;;11.40;4.28;;;0.40;99.90;;;;;;5051763;28;20032;-75
2021/03/09 06:37:23;;;;;;;6.95;3.50;;;0.40;99.90;;;;;;5052648;28;20393;-75
2021/03/09 06:40:05;;;;;;;6.85;3.63;;;0.40;99.90;;;;;;5052529;28;20021;-75
2021/03/09 06:42:30;;;;;;;11.27;3.28;;;0.40;99.90;;;;;;5052269;28;20029;-75
2021/03/09 06:45:02;;;;;;;8.25;3.53;;;0.50;99.90;;;;;;5033902;28;20040;-75
2021/03/09 06:47:33;;;;;;;8.25;3.58;;;0.50;99.90;;;;;;5052451;28;20108;-76
2021/03/09 06:49:59;;;;;;;7.13;3.15;;;0.60;99.90;;;;;;5052165;28;20122;-75
2021/03/09 06:52:25;;;;;;;5.18;2.90;;;0.60;99.90;;;;;;5052027;28;20044;-75
2021/03/09 06:54:53;;;;;;;7.57;4.03;;;0.70;99.90;;;;;;5051643;28;20025;-75
2021/03/09 06:57:19;;;;;;;9.85;3.42;;;0.70;99.90;;;;;;5034172;28;20489;-75
2021/03/09 06:59:48;;;;;;;9.50;3.75;;;0.70;99.90;;;;;;5052219;28;20075;-75
2021/03/09 07:02:16;;;;;;;8.35;3.65;;;0.80;99.90;;;;;;5051936;28;20028;-75
2021/03/09 07:04:45;;;;;;;13.65;3.72;;;0.80;99.90;;;;;;5051466;28;20025;-75
2021/03/09 07:07:13;;;;;;;7.00;3.63;;;0.90;99.90;;;;;;5034218;28;20025;-75
2021/03/09 07:09:40;;;;;;;14.77;3.70;;;0.90;99.90;;;;;;5052023;28;20018;-75
2021/03/09 07:12:09;;;;;;;5.70;2.85;;;1.00;99.90;;;;;;5051511;28;20031;-75
2021/03/09 07:14:39;;;;;;;7.07;3.15;;;1.10;99.90;;;;;;5051258;28;20025;-75
2021/03/09 07:17:06;;;;;;;7.70;3.28;;;1.10;99.90;;;;;;5051869;28;20021;-75
2021/03/09 07:19:42;;;;;;;9.00;3.25;;;1.10;99.90;;;;;;5051769;28;20028;-75
2021/03/09 07:22:11;;;;;;;4.53;2.60;;;1.20;99.90;;;;;;5051764;28;20106;-75
2021/03/09 07:25:00;;;;;;;8.68;3.40;;;1.30;99.90;;;;;;5033470;28;20362;-75
2021/03/09 07:27:31;;;;;;;6.65;3.65;;;1.40;99.90;;;;;;5038238;28;20405;-75
2021/03/09 07:29:58;;;;;;;8.13;3.67;;;1.50;99.90;;;;;;5033805;28;20074;-76
2021/03/09 07:32:28;;;;;;;7.90;3.20;;;1.50;99.90;;;;;;5051270;28;20061;-75
2021/03/09 07:34:56;;;;;;;7.68;3.25;;;1.60;99.90;;;;;;5050833;28;20032;-75
2021/03/09 07:37:22;;;;;;;8.45;3.22;;;1.60;99.90;;;;;;5050707;28;20043;-75
2021/03/09 07:39:49;;;;;;;9.20;3.15;;;1.60;99.90;;;;;;5051532;28;20071;-75
2021/03/09 07:42:16;;;;;;;6.28;3.17;;;1.70;99.90;;;;;;5051272;28;20029;-75
2021/03/09 07:44:42;;;;;;;10.48;3.20;;;1.80;99.90;;;;;;5032938;28;20460;-75
2021/03/09 07:47:10;;;;;;;7.53;3.00;;;1.90;99.90;;;;;;5051565;28;20051;-75
2021/03/09 07:49:37;;;;;;;6.68;3.45;;;1.90;99.90;;;;;;5051311;28;20115;-75
2021/03/09 07:52:20;;;;;;;8.57;3.42;;;2.00;99.90;;;;;;5051233;28;20505;-75
2021/03/09 07:55:12;;;;;;;5.32;3.00;;;2.10;99.90;;;;;;5050806;28;20128;-75
2021/03/09 07:57:37;;;;;;;8.25;3.33;;;2.20;99.90;;;;;;5033158;28;20040;-75
2021/03/09 08:00:08;;;;;;;12.45;3.42;;;2.30;99.90;;;;;;5051229;28;20021;-75
2021/03/09 08:02:57;;;;;;;16.92;3.88;;;2.40;99.90;;;;;;5031285;28;20029;-75
2021/03/09 08:05:28;;;;;;;7.78;3.72;;;2.50;99.90;;;;;;5032461;28;20021;-75
2021/03/09 08:08:03;;;;;;;5.47;3.22;;;2.60;99.90;;;;;;5051093;28;20021;-75
2021/03/09 08:10:45;;;;;;;12.52;4.05;;;2.70;99.90;;;;;;5050698;28;20071;-75
2021/03/09 08:13:15;;;;;;;7.03;3.17;;;2.70;99.90;;;;;;5013583;28;20081;-75
2021/03/09 08:15:40;;;;;;;7.78;3.88;;;2.90;99.90;;;;;;5030614;28;20033;-75
2021/03/09 08:18:19;;;;;;;10.48;3.88;;;3.00;99.90;;;;;;5031071;28;20029;-75
2021/03/09 08:20:51;;;;;;;9.20;3.22;;;3.10;99.90;;;;;;5031039;28;20025;-75
2021/03/09 08:23:35;;;;;;;6.75;3.30;;;3.20;99.90;;;;;;5031248;28;20171;-76
2021/03/09 08:26:20;;;;;;;19.08;3.28;;;3.30;99.90;;;;;;5034955;28;20027;-76
2021/03/09 08:28:45;;;;;;;13.18;3.45;;;3.50;99.90;;;;;;5049401;28;20559;-75
2021/03/09 08:31:11;;;;;;;13.30;3.53;;;3.50;99.90;;;;;;5050578;28;20116;-75
2021/03/09 08:33:47;;;;;;;9.45;3.20;;;3.60;99.90;;;;;;5030394;28;20028;-75
2021/03/09 08:36:19;;;;;;;15.30;4.00;;;3.70;99.90;;;;;;5050227;28;20036;-75
2021/03/09 08:39:13;;;;;;;14.90;3.90;;;3.80;99.90;;;;;;5050675;28;20504;-75
2021/03/09 08:41:42;;;;;;;9.63;4.28;;;4.00;99.90;;;;;;5050552;28;20033;-75
2021/03/09 08:44:16;;;;;;;7.25;3.50;;;4.20;99.90;;;;;;5049765;28;20032;-76
2021/03/09 08:46:57;;;;;;;10.52;3.85;;;4.30;99.90;;;;;;5050959;28;20044;-75
2021/03/09 08:49:34;;;;;;;11.20;4.95;;;4.40;99.90;;;;;;5052691;28;20033;-75
2021/03/09 08:52:18;;;;;;;10.43;4.97;;;4.60;99.90;;;;;;5054217;28;20112;-75
2021/03/09 08:54:53;;;;;;;16.02;5.10;;;4.90;99.90;;;;;;5053904;28;20021;-75
2021/03/09 08:57:18;;;;;;;8.98;4.40;;;5.40;99.90;;;;;;5054188;28;20393;-76
2021/03/09 08:59:48;;;;;;;19.25;4.55;;;5.80;99.90;;;;;;5053041;28;20029;-76
2021/03/09 09:02:17;;;;;;;10.75;5.18;;;6.10;99.90;;;;;;5043565;28;20115;-76
2021/03/09 09:04:58;;;;;;;16.38;5.45;;;6.30;99.90;;;;;;5045628;28;20021;-77
2021/03/09 09:07:29;;;;;;;11.85;5.50;;;6.40;99.90;;;;;;5044973;28;20013;-76
2021/03/09 09:10:04;;;;;;;15.93;5.85;;;6.60;99.90;;;;;;5054222;28;20629;-77
2021/03/09 09:12:39;;;;;;;10.82;5.60;;;6.80;99.90;;;;;;5053948;28;20123;-76
2021/03/09 09:15:07;;;;;;;8.70;5.07;;;6.90;99.90;;;;;;5035044;28;20021;-77
2021/03/09 09:17:37;;;;;;;7.85;4.70;;;7.00;99.90;;;;;;5036197;28;20047;-76
2021/03/09 09:20:07;;;;;;;19.58;6.38;;;7.00;99.90;;;;;;5036008;28;20537;-76
2021/03/09 09:22:32;;;;;;;13.98;6.07;;;7.00;99.90;;;;;;5053848;28;20389;-76
2021/03/09 09:25:02;;;;;;;10.95;5.03;;;7.10;99.90;;;;;;5053363;28;20021;-77
2021/03/09 09:27:28;;;;;;;11.30;5.57;;;7.20;99.90;;;;;;5036074;28;20024;-76
2021/03/09 09:29:55;;;;;;;10.48;5.57;;;7.30;99.90;;;;;;5053728;28;20028;-76
2021/03/09 09:32:21;;;;;;;14.63;5.32;;;7.30;99.90;;;;;;5038591;28;20095;-76
2021/03/09 09:34:56;;;;;;;11.23;5.53;;;7.40;99.90;;;;;;5033084;28;20057;-75
2021/03/09 09:37:22;;;;;;;9.15;5.35;;;7.40;99.90;;;;;;5033629;28;20029;-76
2021/03/09 09:39:48;;;;;;;15.82;5.55;;;7.50;99.90;;;;;;5033679;28;20028;-75
2021/03/09 09:42:16;;;;;;;12.48;5.55;;;7.50;99.90;;;;;;5032407;28;20041;-76
2021/03/09 09:44:42;;;;;;;11.85;4.97;;;7.50;99.90;;;;;;5036971;28;20024;-75
2021/03/09 09:47:09;;;;;;;13.05;5.15;;;7.40;99.90;;;;;;5035556;28;20024;-75
2021/03/09 09:49:41;;;;;;;21.88;5.90;;;7.20;99.90;;;;;;5053161;28;20039;-77
2021/03/09 09:52:15;;;;;;;9.20;5.28;;;7.30;99.90;;;;;;5053487;28;20033;-76
2021/03/09 09:54:54;;;;;;;8.15;5.18;;;7.30;99.90;;;;;;5052693;28;20029;-76
2021/03/09 09:57:22;;;;;;;12.13;5.55;;;7.10;99.90;;;;;;5053432;28;20060;-76
2021/03/09 09:59:48;;;;;;;19.70;6.45;;;7.10;99.90;;;;;;5052083;28;20021;-76
2021/03/09 10:02:15;;;;;;;13.88;5.28;;;7.20;99.90;;;;;;5052849;28;20039;-76
2021/03/09 10:04:41;;;;;;;11.68;5.30;;;7.30;99.90;;;;;;5052665;28;20450;-76
2021/03/09 10:07:14;;;;;;;10.43;5.40;;;7.40;99.90;;;;;;5053051;28;20056;-77
2021/03/09 10:09:40;;;;;;;12.35;6.22;;;7.50;99.90;;;;;;5053123;28;20029;-76
2021/03/09 10:12:06;;;;;;;10.65;6.30;;;7.40;99.90;;;;;;5035167;28;20044;-76
2021/03/09 10:14:33;;;;;;;8.02;5.13;;;7.50;99.90;;;;;;5052485;28;20032;-76
2021/03/09 10:17:00;;;;;;;14.98;6.18;;;7.40;99.90;;;;;;5052934;28;20036;-75
2021/03/09 10:19:35;;;;;;;13.93;5.18;;;7.10;99.90;;;;;;5052832;28;20024;-75
2021/03/09 10:22:01;;;;;;;9.63;5.13;;;6.90;99.90;;;;;;5052957;28;20053;-76
2021/03/09 10:24:31;;;;;;;12.93;5.78;;;7.00;99.90;;;;;;5034447;28;20021;-76
2021/03/09 10:26:58;;;;;;;15.55;6.30;;;7.10;99.90;;;;;;5034872;28;20032;-75
2021/03/09 10:29:28;;;;;;;15.63;6.30;;;7.10;99.90;;;;;;5052610;28;20108;-76
2021/03/09 10:31:55;;;;;;;18.52;5.57;;;7.00;99.90;;;;;;5034868;28;20032;-76
2021/03/09 10:34:44;;;;;;;9.27;5.30;;;7.10;99.90;;;;;;5051965;28;20025;-76
2021/03/09 10:37:12;;;;;;;14.25;4.80;;;7.40;99.90;;;;;;5034852;28;20082;-76
2021/03/09 10:39:55;;;;;;;17.67;7.43;;;7.20;99.90;;;;;;5052307;28;20029;-75
2021/03/09 10:42:25;;;;;;;11.98;5.57;;;7.30;99.90;;;;;;5052501;28;20481;-76
2021/03/09 10:44:51;;;;;;;13.77;5.63;;;7.00;99.90;;;;;;5051923;28;20026;-75
2021/03/09 10:47:16;;;;;;;12.75;6.07;;;6.80;99.90;;;;;;5034433;28;20021;-75
2021/03/09 10:49:42;;;;;;;18.27;6.20;;;6.80;99.90;;;;;;5052178;28;20048;-75
2021/03/09 10:52:08;;;;;;;12.07;6.10;;;7.10;99.90;;;;;;5052275;28;20029;-77
2021/03/09 10:54:37;;;;;;;16.45;7.38;;;7.30;99.90;;;;;;5051585;28;20033;-76
2021/03/09 10:57:07;;;;;;;15.77;6.85;;;7.40;99.90;;;;;;5052246;28;20051;-75
2021/03/09 10:59:33;;;;;;;10.73;6.10;;;7.10;99.90;;;;;;5034441;28;20025;-75
2021/03/09 11:01:58;;;;;;;18.33;7.90;;;7.20;99.90;;;;;;5034060;28;20075;-75
2021/03/09 11:04:24;;;;;;;15.77;6.65;;;7.20;99.90;;;;;;5051498;28;20428;-76
2021/03/09 11:06:49;;;;;;;17.45;8.02;;;7.10;99.90;;;;;;5052056;28;20033;-75
2021/03/09 11:09:15;;;;;;;14.50;7.07;;;6.90;99.90;;;;;;5051975;28;20486;-76
2021/03/09 11:11:41;;;;;;;16.27;7.18;;;7.20;99.90;;;;;;5033871;28;20025;-75
2021/03/09 11:14:06;;;;;;;12.05;7.18;;;7.50;99.90;;;;;;5051344;28;20053;-75
2021/03/09 11:16:32;;;;;;;13.75;6.10;;;7.40;99.90;;;;;;5033989;28;20081;-76
2021/03/09 11:18:59;;;;;;;11.55;5.90;;;7.50;99.90;;;;;;5033776;28;20501;-76
2021/03/09 11:21:25;;;;;;;16.70;6.68;;;7.80;99.90;;;;;;5051667;28;20024;-75
2021/03/09 11:23:51;;;;;;;14.93;7.43;;;8.10;99.90;;;;;;5051122;28;20083;-77
2021/03/09 11:26:21;;;;;;;14.82;7.43;;;8.30;99.90;;;;;;5051732;28;20025;-81
2021/03/09 11:28:48;;;;;;;19.92;8.18;;;8.30;99.90;;;;;;5033933;28;20017;-77
2021/03/09 11:31:15;;;;;;;15.60;7.00;;;8.20;99.90;;;;;;5051658;28;20025;-77
2021/03/09 11:33:41;;;;;;;14.70;7.25;;;7.60;99.90;;;;;;5051266;28;20021;-77
2021/03/09 11:36:07;;;;;;;16.75;7.57;;;7.20;99.90;;;;;;5051197;28;20485;-77
2021/03/09 11:38:33;;;;;;;18.17;7.38;;;6.70;99.90;;;;;;5051425;28;20104;-77
2021/03/09 11:40:59;;;;;;;22.92;8.73;;;6.70;99.90;;;;;;5051586;28;20024;-77
2021/03/09 11:43:24;;;;;;;16.40;7.50;;;6.80;99.90;;;;;;5051560;28;20496;-78
2021/03/09 11:45:50;;;;;;;20.60;8.40;;;6.90;99.90;;;;;;5033053;28;20021;-78
2021/03/09 11:48:16;;;;;;;15.45;7.63;;;6.80;99.90;;;;;;5051383;28;20028;-78
2021/03/09 11:50:41;;;;;;;16.60;7.50;;;6.80;99.90;;;;;;5033395;28;20047;-77
2021/03/09 11:53:07;;;;;;;14.35;7.53;;;7.00;99.90;;;;;;5033496;28;20029;-77
2021/03/09 11:55:33;;;;;;;13.30;6.93;;;7.10;99.90;;;;;;5032952;28;20032;-77
2021/03/09 11:57:58;;;;;;;19.27;8.32;;;7.10;99.90;;;;;;5051514;28;20112;-77
2021/03/09 12:00:24;;;;;;;20.30;7.25;;;6.80;99.90;;;;;;5050896;28;20041;-77
2021/03/09 12:02:50;;;;;;;18.30;8.35;;;6.90;99.90;;;;;;5033552;28;20025;-78
2021/03/09 12:05:15;;;;;;;13.85;7.25;;;7.10;99.90;;;;;;5050685;28;20501;-77
2021/03/09 12:07:42;;;;;;;18.10;7.32;;;7.10;99.90;;;;;;5051533;28;20082;-77
2021/03/09 12:10:07;;;;;;;22.05;8.05;;;7.10;99.90;;;;;;5051297;28;20470;-77
2021/03/09 12:12:33;;;;;;;15.38;7.70;;;6.80;99.90;;;;;;5051513;28;20032;-77
2021/03/09 12:14:58;;;;;;;15.40;7.95;;;6.80;99.90;;;;;;5032694;28;20057;-77
2021/03/09 12:17:24;;;;;;;21.27;9.13;;;6.60;99.90;;;;;;5033464;28;20017;-78
2021/03/09 12:19:49;;;;;;;20.67;9.32;;;6.70;99.90;;;;;;5051135;28;20078;-77
2021/03/09 12:22:15;;;;;;;28.02;10.35;;;6.80;99.90;;;;;;5051467;28;20029;-77
2021/03/09 12:24:41;;;;;;;25.50;12.60;;;7.10;99.90;;;;;;5053744;28;20185;-77
2021/03/09 12:27:07;;;;;;;17.05;9.00;;;7.30;99.90;;;;;;5055676;28;20021;-77
2021/03/09 12:29:33;;;;;;;16.55;7.80;;;7.50;99.90;;;;;;5055235;28;20025;-77
2021/03/09 12:31:58;;;;;;;16.30;7.63;;;7.70;99.90;;;;;;5055141;28;20024;-77
2021/03/09 12:34:24;;;;;;;15.32;6.82;;;7.50;99.90;;;;;;5036548;28;20047;-77
2021/03/09 12:36:49;;;;;;;12.38;7.30;;;7.10;99.90;;;;;;5055107;28;20078;-77
2021/03/09 12:39:15;;;;;;;17.40;7.30;;;6.70;99.90;;;;;;5036839;28;20032;-78
2021/03/09 12:41:40;;;;;;;19.95;7.30;;;6.90;99.90;;;;;;5054887;28;20029;-77
2021/03/09 12:44:06;;;;;;;14.50;7.47;;;7.30;99.90;;;;;;5054033;28;20021;-77
2021/03/09 12:46:32;;;;;;;13.75;7.15;;;7.40;99.90;;;;;;5036873;28;20029;-77
2021/03/09 12:48:57;;;;;;;12.05;6.43;;;7.60;99.90;;;;;;5054497;28;20023;-78
2021/03/09 12:51:23;;;;;;;13.57;6.50;;;7.60;99.90;;;;;;5054730;28;20032;-78
2021/03/09 12:53:48;;;;;;;17.02;7.28;;;7.70;99.90;;;;;;5053974;28;20028;-77
2021/03/09 12:56:14;;;;;;;15.30;7.75;;;7.90;99.90;;;;;;5054650;28;20025;-77
2021/03/09 12:58:39;;;;;;;17.27;6.80;;;7.90;99.90;;;;;;5036284;28;20029;-77